createdAt,value
2022-10-01T00:00:47.174Z,100054.72
2022-10-01T00:06:12.145Z,100050.19
2022-10-01T00:11:34.349Z,100044.16
2022-10-01T00:16:55.262Z,100035.44
2022-10-01T00:22:15.829Z,100022.88
2022-10-01T00:27:36.743Z,100031.97
2022-10-01T00:32:57.318Z,100008.72
2022-10-01T00:38:17.866Z,99993.59
2022-10-01T00:43:44.074Z,99993.63
2022-10-01T00:49:27.717Z,100003.75
2022-10-01T00:55:02.501Z,99983.97
2022-10-01T01:00:23.324Z,99995.94
2022-10-01T01:05:44.199Z,99981.31
2022-10-01T01:11:22.646Z,99961.72
2022-10-01T01:16:58.663Z,99955.94
2022-10-01T01:22:24.101Z,99957.78
2022-10-01T01:28:03.951Z,99948.22
2022-10-01T01:33:29.065Z,99924.47
2022-10-01T01:38:57.842Z,99925.22
2022-10-01T01:44:26.344Z,99920.38
2022-10-01T01:49:48.743Z,99925.47
2022-10-01T01:55:10.059Z,99892.31
2022-10-01T02:00:30.589Z,99894.88
2022-10-01T02:06:16.852Z,99882.19
2022-10-01T02:11:46.764Z,99859.09
2022-10-01T02:17:21.193Z,99867.66
2022-10-01T02:23:15.842Z,99843.75
2022-10-01T02:28:40.869Z,99835.94
2022-10-01T02:34:04.514Z,99821.38
2022-10-01T02:39:29.469Z,99817.38
2022-10-01T02:44:52.737Z,99814.75
2022-10-01T02:50:14.841Z,99806.28
2022-10-01T02:55:38.854Z,99807.09
2022-10-01T03:00:59.622Z,99791.63
2022-10-01T03:06:20.143Z,99790.44
2022-10-01T03:11:42.456Z,99776.03
2022-10-01T03:17:03.190Z,99785.72
2022-10-01T03:22:23.843Z,99762.91
2022-10-01T03:27:46.080Z,99760.81
2022-10-01T03:33:07.695Z,99751.38
2022-10-01T03:38:28.658Z,99744.56
2022-10-01T03:43:49.180Z,99727.94
2022-10-01T03:49:10.698Z,99712.94
2022-10-01T03:54:31.329Z,99711.22
2022-10-01T03:59:52.131Z,99693.91
2022-10-01T04:05:12.949Z,99699.88
2022-10-01T04:10:33.577Z,99692.94
2022-10-01T04:15:54.405Z,99690.81
2022-10-01T04:21:15.545Z,99689.53
2022-10-01T04:26:36.202Z,99688.31
2022-10-01T04:31:58.140Z,99683.63
2022-10-01T04:37:22.255Z,99674.44
2022-10-01T04:42:43.614Z,99672.72
2022-10-01T04:48:05.194Z,99666.81
2022-10-01T04:53:25.942Z,99670.00
2022-10-01T04:58:46.749Z,99656.47
2022-10-01T05:04:08.455Z,99671.78
2022-10-01T05:09:28.750Z,99663.97
2022-10-01T05:14:50.823Z,99630.19
2022-10-01T05:20:23.259Z,99613.03
2022-10-01T05:25:46.932Z,99618.75
2022-10-01T05:31:07.726Z,99618.56
2022-10-01T05:36:28.700Z,99615.53
2022-10-01T05:41:49.111Z,99611.03
2022-10-01T05:47:09.640Z,99610.34
2022-10-01T05:52:29.870Z,99618.75
2022-10-01T05:57:55.874Z,99602.66
2022-10-01T06:03:16.647Z,99590.59
2022-10-01T06:08:40.507Z,99586.84
2022-10-01T06:14:00.958Z,99580.75
2022-10-01T06:19:21.668Z,99565.03
2022-10-01T06:24:42.234Z,99562.19
2022-10-01T06:30:05.360Z,99546.59
2022-10-01T06:35:25.715Z,99547.22
2022-10-01T06:40:57.444Z,99537.69
2022-10-01T06:46:17.920Z,99543.47
2022-10-01T06:51:57.038Z,99531.47
2022-10-01T06:57:17.275Z,99520.41
2022-10-01T07:02:38.222Z,99511.03
2022-10-01T07:07:58.550Z,99494.69
2022-10-01T07:13:20.827Z,99500.66
2022-10-01T07:18:41.496Z,99473.94
2022-10-01T07:24:01.955Z,99461.00
2022-10-01T07:29:23.853Z,99451.72
2022-10-01T07:34:44.676Z,99448.03
2022-10-01T07:40:07.619Z,99455.06
2022-10-01T07:45:28.221Z,99432.63
2022-10-01T07:50:49.549Z,99433.00
2022-10-01T07:56:10.090Z,99425.69
2022-10-01T08:01:34.227Z,99404.16
2022-10-01T08:06:55.170Z,99407.22
2022-10-01T08:12:17.779Z,99390.34
2022-10-01T08:17:39.014Z,99384.97
2022-10-01T08:23:17.581Z,99360.41
2022-10-01T08:28:37.961Z,99358.38
2022-10-01T08:33:58.670Z,99341.63
2022-10-01T08:39:20.419Z,99324.66
2022-10-01T08:44:45.810Z,99321.00
2022-10-01T08:50:28.096Z,99332.31
2022-10-01T08:55:50.890Z,99364.03
2022-10-01T09:09:31.270Z,99399.47
2022-10-01T09:15:16.753Z,99413.63
2022-10-01T09:20:57.689Z,99419.50
2022-10-01T09:26:21.351Z,99430.66
2022-10-01T09:31:51.007Z,99440.09
2022-10-01T09:37:37.707Z,99460.81
2022-10-01T09:42:58.585Z,99474.63
2022-10-01T09:48:41.070Z,99487.53
2022-10-01T09:54:39.301Z,99520.34
2022-10-01T10:00:14.862Z,99550.47
2022-10-01T10:05:46.555Z,99567.28
2022-10-01T10:11:10.783Z,99594.16
2022-10-01T10:16:37.177Z,99610.53
2022-10-01T10:22:11.525Z,99626.38
2022-10-01T10:27:33.669Z,99636.31
2022-10-01T10:33:03.572Z,99651.34
2022-10-01T10:38:29.680Z,99668.00
2022-10-01T10:43:50.544Z,99694.66
2022-10-01T10:49:22.191Z,99692.44
2022-10-01T10:54:47.415Z,99710.63
2022-10-01T11:00:17.797Z,99714.06
2022-10-01T11:05:42.840Z,99727.84
2022-10-01T11:11:37.415Z,99730.25
2022-10-01T11:17:25.700Z,99726.41
2022-10-01T11:23:03.964Z,99741.28
2022-10-01T11:28:37.261Z,99746.38
2022-10-01T11:34:16.628Z,99761.22
2022-10-01T11:39:42.382Z,99769.94
2022-10-01T11:45:11.164Z,99771.41
2022-10-01T11:50:40.208Z,99774.88
2022-10-01T11:56:32.331Z,99790.91
2022-10-01T12:02:19.324Z,99778.22
2022-10-01T12:07:59.130Z,99814.09
2022-10-01T12:13:41.165Z,99804.03
2022-10-01T12:19:13.217Z,99798.69
2022-10-01T12:24:42.541Z,99813.75
2022-10-01T12:30:09.255Z,99805.06
2022-10-01T12:35:47.367Z,99819.00
2022-10-01T12:41:22.252Z,99829.97
2022-10-01T12:47:05.859Z,99848.91
2022-10-01T12:52:51.296Z,99853.44
2022-10-01T12:58:33.143Z,99862.38
2022-10-01T13:04:15.000Z,99877.75
2022-10-01T13:10:02.795Z,99876.50
2022-10-01T13:15:29.584Z,99874.47
2022-10-01T13:21:05.743Z,99896.25
2022-10-01T13:26:37.272Z,99908.66
2022-10-01T13:32:00.063Z,99904.72
2022-10-01T13:37:29.679Z,99914.38
2022-10-01T13:42:52.489Z,99927.63
2022-10-01T13:48:20.328Z,99935.97
2022-10-01T13:53:43.533Z,99931.88
2022-10-01T13:59:20.301Z,99949.28
2022-10-01T14:04:43.874Z,99963.09
2022-10-01T14:10:05.392Z,99960.81
2022-10-01T14:15:59.511Z,99959.91
2022-10-01T14:21:37.028Z,99985.22
2022-10-01T14:27:16.204Z,99972.41
2022-10-01T14:33:34.142Z,99981.72
2022-10-01T14:39:16.099Z,99996.25
2022-10-01T14:44:42.014Z,99998.16
2022-10-01T14:50:10.984Z,100002.13
2022-10-01T14:55:34.678Z,100025.78
2022-10-01T15:00:57.389Z,100023.47
2022-10-01T15:06:21.648Z,100020.34
2022-10-01T15:11:44.696Z,100027.25
2022-10-01T15:17:07.461Z,100028.38
2022-10-01T15:22:29.950Z,100039.47
2022-10-01T15:27:54.078Z,100031.22
2022-10-01T15:33:40.612Z,100053.34
2022-10-01T15:39:03.246Z,100060.22
2022-10-01T15:44:46.594Z,100067.06
2022-10-01T15:50:10.995Z,100074.00
2022-10-01T15:55:43.933Z,100066.66
2022-10-01T16:01:13.779Z,100088.84
2022-10-01T16:06:42.659Z,100093.59
2022-10-01T16:12:09.061Z,100098.94
2022-10-01T16:17:34.887Z,100104.91
2022-10-01T16:23:34.872Z,100127.13
2022-10-01T16:28:58.761Z,100127.91
2022-10-01T16:34:20.632Z,100133.00
2022-10-01T16:39:41.477Z,100152.84
2022-10-01T16:45:04.855Z,100159.81
2022-10-01T16:50:26.228Z,100161.09
2022-10-01T16:55:47.276Z,100169.56
2022-10-01T17:01:09.432Z,100175.16
2022-10-01T17:06:30.322Z,100171.22
2022-10-01T17:11:50.692Z,100183.47
2022-10-01T17:17:11.465Z,100192.22
2022-10-01T17:22:32.014Z,100197.50
2022-10-01T17:27:52.990Z,100205.50
2022-10-01T17:33:15.520Z,100221.28
2022-10-01T17:38:36.658Z,100222.31
2022-10-01T17:43:57.757Z,100221.50
2022-10-01T17:49:18.611Z,100245.59
2022-10-01T17:54:39.174Z,100252.44
2022-10-01T17:59:59.804Z,100264.56
2022-10-01T18:05:20.626Z,100267.84
2022-10-01T18:10:41.100Z,100280.50
2022-10-01T18:16:05.273Z,100296.00
2022-10-01T18:21:26.530Z,100291.28
2022-10-01T18:26:47.225Z,100301.16
2022-10-01T18:32:21.089Z,100301.66
2022-10-01T18:37:49.827Z,100307.59
2022-10-01T18:43:23.172Z,100323.44
2022-10-01T18:49:07.578Z,100307.91
2022-10-01T18:54:57.261Z,100319.13
2022-10-01T19:00:23.191Z,100334.50
2022-10-01T19:06:12.741Z,100344.03
2022-10-01T19:12:08.585Z,100335.50
2022-10-01T19:17:41.424Z,100338.38
2022-10-01T19:23:11.504Z,100356.06
2022-10-01T19:28:58.391Z,100343.31
2022-10-01T19:34:29.766Z,100371.59
2022-10-01T19:39:55.140Z,100364.25
2022-10-01T19:45:24.154Z,100382.94
2022-10-01T19:50:51.463Z,100375.13
2022-10-01T19:56:25.922Z,100371.72
2022-10-01T20:01:54.838Z,100380.94
2022-10-01T20:07:24.120Z,100392.63
2022-10-01T20:12:55.415Z,100417.16
2022-10-01T20:18:32.906Z,100423.44
2022-10-01T20:24:03.046Z,100416.56
2022-10-01T20:29:50.666Z,100418.09
2022-10-01T20:35:17.131Z,100431.44
2022-10-01T20:40:40.403Z,100438.75
2022-10-01T20:46:09.700Z,100436.38
2022-10-01T20:51:55.423Z,100436.38
2022-10-01T20:57:28.989Z,100452.72
2022-10-01T21:02:55.635Z,100463.47
2022-10-01T21:08:37.247Z,100456.72
2022-10-01T21:14:06.036Z,100461.19
2022-10-01T21:19:42.428Z,100456.59
2022-10-01T21:25:21.759Z,100467.47
2022-10-01T21:31:30.808Z,100461.88
2022-10-01T21:37:25.185Z,100476.25
2022-10-01T21:43:04.835Z,100484.28
2022-10-01T21:48:40.000Z,100477.44
2022-10-01T21:54:15.770Z,100476.66
2022-10-01T21:59:58.104Z,100501.63
2022-10-01T22:05:29.751Z,100489.72
2022-10-01T22:10:54.551Z,100516.28
2022-10-01T22:16:17.079Z,100528.28
2022-10-01T22:21:42.206Z,100553.19
2022-10-01T22:27:31.907Z,100524.84
2022-10-01T22:33:04.533Z,100529.16
2022-10-01T22:38:36.231Z,100524.84
2022-10-01T22:43:57.126Z,100529.81
2022-10-01T22:49:33.205Z,100551.41
2022-10-01T22:55:28.483Z,100550.63
2022-10-01T23:01:02.101Z,100536.66
2022-10-01T23:06:29.530Z,100545.06
2022-10-01T23:12:16.772Z,100567.13
2022-10-01T23:17:48.755Z,100561.97
2022-10-01T23:23:25.648Z,100572.91
2022-10-01T23:29:04.828Z,100577.69
2022-10-01T23:34:29.937Z,100584.34
2022-10-01T23:40:02.943Z,100584.69
2022-10-01T23:45:32.764Z,100610.50
2022-10-01T23:51:09.370Z,100604.66
2022-10-01T23:56:48.766Z,100605.34
